CheckWX is a tool to help pilots better visualize weather data.  It is not intended as a substitute for an official pre-flight weather briefing.

05:46:44 UTC

KPBH METAR
Price County Airport
Phillips, Wisconsin, USA
Current

12 mins ago

KPBH 280535Z AUTO 00000KT 10SM CLR M19/M22 A2998 RMK AO2 T11941217
Observed
Feb-28 @ 05:35 UTC
Visibility
10 SM
Flight Rules
VFR
Cloud Levels
  • Clear skies
Temperature
-19°C / -2°F
Dewpoint
-22°C / -8°F
Humidity
77%
Altimeter
29.98" Hg
Pressure
1015.22 hPa
Previous

32 mins ago

KPBH 280515Z AUTO 00000KT 10SM CLR M19/M21 A2998 RMK AO2 T11911206
Observed
Feb-28 @ 05:15 UTC
Visibility
10 SM
Flight Rules
VFR
Cloud Levels
  • Clear skies
Temperature
-19°C / -2°F
Dewpoint
-21°C / -6°F
Humidity
84%
Altimeter
29.98" Hg
Pressure
1015.22 hPa
Previous

1 hour ago

KPBH 280435Z AUTO 00000KT 10SM CLR M18/M20 A2999 RMK AO2 T11811200
Observed
Feb-28 @ 04:35 UTC
Visibility
10 SM
Flight Rules
VFR
Cloud Levels
  • Clear skies
Temperature
-18°C / -0°F
Dewpoint
-20°C / -4°F
Humidity
84%
Altimeter
29.99" Hg
Pressure
1015.62 hPa